CheckWX is a tool to help pilots better visualize weather data.  It is not intended as a substitute for an official pre-flight weather briefing.

21:34:07 UTC

UUMO TAF
Ostafyevo International Airport
Moscow, Russian Federation
TAF UUMO 201942Z 2021/2106 24004MPS 9999 BKN030 TEMPO 2021/2106 3000 -SHSNRA BKN010 SCT020CB

Mar-20@
21:00 UTC

Mar-20 @ 21:00 UTC

Mar-21@
06:00 UTC

Mar-21 @ 06:00 UTC

TAF UUMO 201942Z 2021/2106 24004MPS 9999 BKN030
Wind
  • 240° at 8 KTS
Cloud Levels
  • Broken at 3,000' AGL

Mar-20@
21:00 UTC

Mar-20 @ 21:00 UTC

Mar-21@
06:00 UTC

Mar-21 @ 06:00 UTC

TEMPO 2021/2106 3000 -SHSNRA BKN010 SCT020CB

Temporary

Temporary Changes expected for less than half the time period

Conditions
Light Snow, Light Rain
Cloud Levels
  • Broken at 1,000' AGL
  • Scattered at 2,000' AGL